createdAt,value
2017-06-24T05:03:09.684Z,49
2017-06-24T05:04:18.213Z,49
2017-06-24T05:05:26.022Z,49
2017-06-24T05:06:33.958Z,49
2017-06-24T05:07:42.755Z,49
2017-06-24T05:08:50.147Z,49
2017-06-24T05:09:58.233Z,49
2017-06-24T05:11:06.324Z,49
2017-06-24T05:12:14.416Z,49
2017-06-24T05:13:22.506Z,49
2017-06-24T05:14:30.596Z,50
2017-06-24T05:15:38.695Z,49
2017-06-24T05:16:46.785Z,49
2017-06-24T05:17:54.872Z,50
2017-06-24T05:19:02.965Z,49
2017-06-24T05:20:11.055Z,49
2017-06-24T05:21:19.745Z,49
2017-06-24T05:22:27.440Z,49
2017-06-24T05:23:35.329Z,50
2017-06-24T05:24:43.419Z,49
2017-06-24T05:25:51.608Z,49
2017-06-24T05:26:59.677Z,50
2017-06-24T05:28:07.690Z,49
2017-06-24T05:29:15.781Z,49
2017-06-24T05:30:23.870Z,49
2017-06-24T05:31:31.981Z,50
2017-06-24T05:32:40.051Z,49
2017-06-24T05:33:48.227Z,49
2017-06-24T05:34:56.238Z,50
2017-06-24T05:36:04.400Z,49
2017-06-24T05:37:12.471Z,50
2017-06-24T05:38:20.497Z,49
2017-06-24T05:39:28.586Z,49
2017-06-24T05:40:36.679Z,49
2017-06-24T05:41:44.768Z,49
2017-06-24T05:42:52.916Z,50
2017-06-24T05:44:00.974Z,49
2017-06-24T05:45:09.038Z,49
2017-06-24T05:46:17.125Z,49
2017-06-24T05:47:25.217Z,50
2017-06-24T05:48:33.629Z,50
2017-06-24T05:49:41.422Z,50
2017-06-24T05:50:49.487Z,49
2017-06-24T05:51:57.885Z,49
2017-06-24T05:53:05.665Z,50
2017-06-24T05:54:13.755Z,49
2017-06-24T05:55:22.465Z,50
2017-06-24T05:56:29.932Z,49
2017-06-24T05:57:38.024Z,49
2017-06-24T05:58:46.116Z,49
2017-06-24T05:59:54.241Z,49
2017-06-24T06:01:02.365Z,49
2017-06-24T06:02:10.383Z,49
2017-06-24T06:03:18.554Z,49
2017-06-24T06:04:26.562Z,49
2017-06-24T06:05:34.712Z,49
2017-06-24T06:06:42.826Z,49
2017-06-24T06:07:50.917Z,49
2017-06-24T06:08:59.015Z,49
2017-06-24T06:10:07.015Z,49
2017-06-24T06:11:15.103Z,49
2017-06-24T06:12:23.363Z,49
2017-06-24T06:13:31.958Z,49
2017-06-24T06:14:39.372Z,49
2017-06-24T06:15:47.569Z,49
2017-06-24T06:16:55.554Z,49
2017-06-24T06:18:03.654Z,49
2017-06-24T06:19:11.751Z,49
2017-06-24T06:20:19.893Z,49
2017-06-24T06:21:27.913Z,49
2017-06-24T06:22:36.002Z,49
2017-06-24T06:23:44.199Z,49
2017-06-24T06:24:52.272Z,49
2017-06-24T06:26:00.340Z,49
2017-06-24T06:27:08.583Z,49
2017-06-24T06:28:16.452Z,49
2017-06-24T06:29:24.624Z,49
2017-06-24T06:30:32.631Z,49
2017-06-24T06:31:40.723Z,49
2017-06-24T06:32:48.978Z,49
2017-06-24T06:33:56.900Z,50
2017-06-24T06:35:04.990Z,50
2017-06-24T06:36:13.085Z,50
2017-06-24T06:37:21.169Z,50
2017-06-24T06:38:29.258Z,49
2017-06-24T06:39:37.351Z,49
2017-06-24T06:40:45.578Z,49
2017-06-24T06:41:53.812Z,49
2017-06-24T06:43:01.700Z,49
2017-06-24T06:44:09.707Z,50
2017-06-24T06:45:17.797Z,50
2017-06-24T06:46:25.961Z,49
2017-06-24T06:47:34.072Z,50
2017-06-24T06:48:42.160Z,49
2017-06-24T06:49:50.171Z,49
2017-06-24T06:50:58.332Z,50
2017-06-24T06:52:06.394Z,49
2017-06-24T10:35:39.995Z,51
2017-06-24T10:36:48.084Z,52
2017-06-24T10:37:56.173Z,51
2017-06-24T10:39:04.261Z,51
2017-06-24T10:40:12.351Z,52
2017-06-24T10:41:20.438Z,52
2017-06-24T10:42:28.555Z,51
2017-06-24T10:43:36.620Z,52
2017-06-24T10:44:44.709Z,52
2017-06-24T10:45:52.800Z,51
2017-06-24T10:47:00.888Z,51
2017-06-24T10:48:08.978Z,52
2017-06-24T10:49:17.068Z,52
2017-06-24T10:50:25.159Z,51
2017-06-24T10:51:33.245Z,51
2017-06-24T10:52:41.334Z,52
2017-06-24T10:53:49.423Z,52
2017-06-24T10:54:57.513Z,51
2017-06-24T10:56:05.603Z,51
2017-06-24T10:57:13.694Z,51
2017-06-24T10:58:21.782Z,50
2017-06-24T10:59:29.873Z,51
2017-06-24T11:00:37.959Z,50
2017-06-24T11:01:46.050Z,50
2017-06-24T11:02:54.140Z,50
2017-06-24T11:04:02.229Z,50
2017-06-24T11:05:10.319Z,50
2017-06-24T11:06:18.409Z,50
2017-06-24T11:07:26.548Z,50
2017-06-24T11:08:34.587Z,50
2017-06-24T11:09:42.674Z,51
2017-06-24T11:10:50.764Z,51
2017-06-24T11:11:58.853Z,51
2017-06-24T11:13:06.942Z,51
2017-06-24T11:14:15.032Z,51
2017-06-24T11:15:23.123Z,52
2017-06-24T11:16:31.241Z,52
2017-06-24T11:17:39.305Z,51
2017-06-24T11:18:47.392Z,51
2017-06-24T11:19:55.520Z,51
2017-06-24T11:21:03.571Z,52
2017-06-24T11:22:11.664Z,51
2017-06-24T11:23:19.751Z,51
2017-06-24T11:24:27.928Z,51
2017-06-24T11:25:35.932Z,51
2017-06-24T11:26:44.025Z,51
2017-06-24T11:27:52.108Z,51
2017-06-24T11:29:00.199Z,51
2017-06-24T11:30:08.287Z,51
2017-06-24T11:31:16.377Z,51
2017-06-24T11:32:24.469Z,51
2017-06-24T11:33:32.557Z,51
2017-06-24T11:34:40.645Z,51
2017-06-24T11:35:48.740Z,52
2017-06-24T11:36:56.829Z,52
2017-06-24T11:38:04.920Z,52
2017-06-24T11:39:13.009Z,53
2017-06-24T11:40:21.098Z,53
2017-06-24T11:41:29.188Z,53
2017-06-24T11:42:37.277Z,53
2017-06-24T11:43:45.371Z,53
2017-06-24T11:44:53.459Z,53
2017-06-24T11:46:01.546Z,53
2017-06-24T11:47:09.634Z,53
2017-06-24T11:48:17.723Z,53
2017-06-24T11:49:25.813Z,53
2017-06-24T11:50:33.902Z,53
2017-06-24T11:51:41.992Z,53
2017-06-24T11:52:50.084Z,53
2017-06-24T11:53:58.172Z,53
2017-06-24T11:55:06.263Z,53
2017-06-24T11:56:14.350Z,53
2017-06-24T11:57:22.444Z,53
2017-06-24T11:58:30.530Z,53
2017-06-24T11:59:38.619Z,53
2017-06-24T12:00:46.711Z,53
2017-06-24T12:01:54.799Z,53
2017-06-24T12:03:02.889Z,53
2017-06-24T12:04:10.979Z,53
2017-06-24T12:05:19.068Z,53
2017-06-24T12:06:27.155Z,53
2017-06-24T12:07:35.247Z,52
2017-06-24T12:08:43.337Z,53
2017-06-24T12:09:51.427Z,53
2017-06-24T12:10:59.522Z,53
2017-06-24T12:12:07.607Z,53
2017-06-24T12:13:15.741Z,53
2017-06-24T12:14:24.365Z,53
2017-06-24T12:15:32.288Z,53
2017-06-24T12:16:39.965Z,53
2017-06-24T12:17:48.055Z,53
2017-06-24T12:18:56.143Z,52
2017-06-24T12:20:04.233Z,52
2017-06-24T12:21:12.324Z,52
2017-06-24T12:22:20.413Z,51
2017-06-24T12:23:28.503Z,52
2017-06-24T12:24:36.592Z,51
2017-06-24T12:25:44.681Z,52
2017-06-24T12:26:52.779Z,52
2017-06-24T12:28:00.867Z,52
2017-06-24T12:29:08.959Z,52
2017-06-24T12:30:17.048Z,52
2017-06-24T12:31:25.138Z,51
2017-06-24T12:32:33.226Z,52
2017-06-24T12:33:41.315Z,51
2017-06-24T12:34:49.404Z,51
2017-06-24T12:35:57.496Z,52
2017-06-24T12:37:05.588Z,52
2017-06-24T12:38:13.674Z,52
2017-06-24T12:39:21.765Z,51
2017-06-24T12:40:29.855Z,51
2017-06-24T12:41:37.947Z,52
2017-06-24T12:42:46.035Z,51
2017-06-24T12:43:54.125Z,52
2017-06-24T12:45:02.217Z,52
2017-06-24T12:46:10.301Z,52
2017-06-24T12:47:18.391Z,51
2017-06-24T12:48:26.482Z,52
2017-06-24T12:49:34.571Z,51
2017-06-24T12:50:42.662Z,51
2017-06-24T12:51:50.751Z,51
2017-06-24T12:52:58.841Z,52
2017-06-24T12:54:06.928Z,52
2017-06-24T12:55:15.018Z,51
2017-06-24T12:56:23.113Z,51
2017-06-24T12:57:31.203Z,51
2017-06-24T12:58:39.318Z,51
2017-06-24T12:59:47.383Z,51
2017-06-24T13:00:55.472Z,51
2017-06-24T13:02:03.563Z,51
2017-06-24T13:03:11.651Z,51
2017-06-24T13:04:19.740Z,51
2017-06-24T13:05:27.828Z,51
2017-06-24T13:06:35.921Z,51
2017-06-24T13:07:44.013Z,51
2017-06-24T13:08:52.102Z,51
2017-06-24T13:10:00.191Z,51
2017-06-24T13:11:08.283Z,51
2017-06-24T13:12:16.371Z,51
2017-06-24T13:13:24.469Z,51
2017-06-24T13:14:32.560Z,51
2017-06-24T13:15:40.650Z,52
2017-06-24T13:16:48.741Z,52
2017-06-24T13:17:56.830Z,52
2017-06-24T13:19:04.921Z,52
2017-06-24T13:20:13.010Z,52
2017-06-24T13:21:21.107Z,52
2017-06-24T13:22:29.198Z,52
2017-06-24T13:23:37.521Z,52
2017-06-24T13:24:45.378Z,52
2017-06-24T13:25:53.468Z,51
2017-06-24T13:27:01.558Z,52
2017-06-24T13:28:09.648Z,52
2017-06-24T13:29:17.736Z,52
2017-06-24T13:30:25.827Z,52
2017-06-24T13:31:34.218Z,52
2017-06-24T13:32:42.009Z,52
2017-06-24T13:33:50.094Z,51
2017-06-24T13:34:58.188Z,52
2017-06-24T13:36:06.277Z,52
2017-06-24T13:37:14.367Z,52
2017-06-24T13:38:23.135Z,51
2017-06-24T13:39:30.554Z,52
2017-06-24T13:40:38.670Z,51
2017-06-24T13:41:46.735Z,52
2017-06-24T13:42:54.825Z,51
2017-06-24T13:44:02.916Z,51
2017-06-24T13:45:11.006Z,51
2017-06-24T13:46:19.100Z,51
2017-06-24T13:47:27.186Z,51
2017-06-24T13:48:35.284Z,51
2017-06-24T13:49:43.376Z,51
2017-06-24T13:50:51.466Z,51
2017-06-24T13:51:59.557Z,51
2017-06-24T13:53:07.650Z,51
2017-06-24T13:54:15.736Z,52
2017-06-24T13:55:23.826Z,51
2017-06-24T13:56:31.917Z,52
2017-06-24T13:57:40.158Z,52
2017-06-24T13:58:48.097Z,51
2017-06-24T13:59:56.189Z,52
2017-06-24T14:01:04.279Z,51
2017-06-24T14:02:12.370Z,51
2017-06-24T14:03:20.458Z,51
2017-06-24T14:04:28.546Z,52
2017-06-24T14:05:36.638Z,51
2017-06-24T14:06:44.752Z,51
2017-06-24T14:07:52.818Z,52
2017-06-24T14:09:00.908Z,51
2017-06-24T14:10:09.002Z,52
2017-06-24T14:11:17.088Z,52
2017-06-24T14:12:25.181Z,52
2017-06-24T14:13:33.269Z,52
2017-06-24T14:14:41.359Z,52
2017-06-24T14:15:49.449Z,52
2017-06-24T14:16:57.580Z,51
2017-06-24T14:18:05.631Z,51
2017-06-24T14:19:13.721Z,52
2017-06-24T14:20:21.814Z,51
2017-06-24T14:21:29.902Z,52
2017-06-24T14:22:37.994Z,52
2017-06-24T14:23:46.085Z,52
2017-06-24T14:24:54.171Z,52
2017-06-24T14:26:02.264Z,51
2017-06-24T14:27:10.352Z,52
2017-06-24T14:28:18.444Z,52
2017-06-24T14:29:26.536Z,52
2017-06-24T14:30:34.637Z,52
2017-06-24T14:31:42.725Z,51
2017-06-24T14:32:50.815Z,51
2017-06-24T14:33:58.905Z,51
2017-06-24T14:35:07.004Z,51
2017-06-24T14:36:15.096Z,51
2017-06-24T14:37:23.188Z,51
2017-06-24T14:38:31.277Z,51
2017-06-24T14:39:39.377Z,51
2017-06-24T14:40:47.468Z,52
2017-06-24T14:41:55.558Z,51
2017-06-24T14:43:03.649Z,51
2017-06-24T14:44:11.738Z,51
2017-06-24T14:45:19.831Z,51
2017-06-24T14:46:27.920Z,52
2017-06-24T14:47:36.009Z,52
2017-06-24T14:48:44.101Z,52
2017-06-24T14:49:52.189Z,53
2017-06-24T14:51:00.281Z,53
2017-06-24T14:52:08.372Z,52
2017-06-24T14:53:16.486Z,52
2017-06-24T14:54:24.553Z,52
2017-06-24T14:55:32.642Z,52
2017-06-24T14:56:40.733Z,52
2017-06-24T14:57:48.825Z,52
2017-06-24T14:58:56.910Z,52
2017-06-24T15:00:05.002Z,52
2017-06-24T15:01:13.093Z,52
2017-06-24T15:02:21.183Z,52
2017-06-24T15:03:29.274Z,53
2017-06-24T15:04:37.366Z,53
2017-06-24T15:05:45.456Z,52
2017-06-24T15:06:53.543Z,52
2017-06-24T15:08:01.637Z,53
2017-06-24T15:09:09.726Z,52
2017-06-24T15:10:17.816Z,52
2017-06-24T15:11:25.907Z,52
2017-06-24T15:12:33.999Z,53
2017-06-24T15:13:42.089Z,52
2017-06-24T15:14:50.204Z,52
2017-06-24T15:15:58.270Z,53
2017-06-24T15:17:06.359Z,53
2017-06-24T15:18:14.457Z,53
2017-06-24T15:19:22.549Z,53
2017-06-24T15:20:30.636Z,53
2017-06-24T15:21:38.728Z,53
2017-06-24T15:22:46.820Z,53
2017-06-24T15:23:54.909Z,53
2017-06-24T15:25:02.999Z,53
2017-06-24T15:26:11.090Z,53
2017-06-24T15:27:19.178Z,53
2017-06-24T15:28:27.271Z,53
2017-06-24T15:29:35.359Z,53
2017-06-24T15:30:43.450Z,52
2017-06-24T15:31:51.542Z,52
2017-06-24T15:32:59.633Z,52
2017-06-24T15:34:07.724Z,53
2017-06-24T15:35:15.812Z,52
2017-06-24T15:36:23.901Z,50
2017-06-24T15:37:31.993Z,50
2017-06-24T15:38:40.083Z,50
2017-06-24T15:39:48.173Z,50
2017-06-24T15:40:56.265Z,49
2017-06-24T15:42:04.354Z,49
2017-06-24T15:43:12.446Z,48
2017-06-24T15:44:20.537Z,49
2017-06-24T15:45:28.628Z,48
2017-06-24T15:46:36.716Z,48
2017-06-24T15:47:44.804Z,48
2017-06-24T15:48:52.896Z,48
2017-06-24T15:50:00.988Z,49
2017-06-24T15:51:09.078Z,49
2017-06-24T15:52:17.168Z,49
2017-06-24T15:53:25.260Z,49
2017-06-24T15:54:33.350Z,49
2017-06-24T15:55:41.438Z,49
2017-06-24T15:56:49.528Z,47
2017-06-24T15:57:57.620Z,48
2017-06-24T15:59:05.710Z,48
2017-06-24T16:00:13.802Z,48
2017-06-24T16:01:21.902Z,48
2017-06-24T16:02:29.992Z,48
2017-06-24T16:03:38.080Z,47
2017-06-24T16:04:46.168Z,46
2017-06-24T16:05:54.261Z,46
2017-06-24T16:07:02.350Z,46
2017-06-24T16:08:10.441Z,46
2017-06-24T16:09:18.529Z,46
2017-06-24T16:10:26.620Z,45
2017-06-24T16:11:34.712Z,44
2017-06-24T16:12:42.800Z,44
2017-06-24T16:13:50.891Z,44
2017-06-24T16:14:58.978Z,44
2017-06-24T16:16:07.070Z,44
2017-06-24T16:17:15.159Z,45
2017-06-24T16:18:23.249Z,44
2017-06-24T16:19:31.339Z,44
2017-06-24T16:20:39.430Z,45
2017-06-24T16:21:47.522Z,45
2017-06-24T16:22:55.609Z,45
2017-06-24T16:24:03.816Z,44
2017-06-24T16:25:11.791Z,45
2017-06-24T16:26:19.880Z,45
2017-06-24T16:27:27.969Z,45
2017-06-24T16:28:36.060Z,45
2017-06-24T16:29:44.149Z,45
2017-06-24T16:30:52.240Z,45
2017-06-24T16:32:00.472Z,46
2017-06-24T16:33:08.421Z,46
2017-06-24T16:34:16.508Z,46
2017-06-24T16:35:24.600Z,46
2017-06-24T16:36:32.690Z,46
2017-06-24T16:37:40.780Z,46
2017-06-24T16:38:48.870Z,46
2017-06-24T16:39:56.960Z,46
2017-06-24T16:41:05.052Z,46
2017-06-24T16:42:13.140Z,46
2017-06-24T16:43:21.234Z,46
2017-06-24T16:44:29.320Z,47
2017-06-24T16:45:37.410Z,47
2017-06-24T16:46:45.503Z,47
2017-06-24T16:47:53.591Z,48
2017-06-24T16:49:01.682Z,48
2017-06-24T16:50:09.774Z,48
2017-06-24T16:51:17.863Z,48
2017-06-24T16:52:25.955Z,48
2017-06-24T16:53:34.043Z,48
2017-06-24T16:54:42.132Z,48
2017-06-24T16:55:50.221Z,48
2017-06-24T16:56:58.316Z,48
2017-06-24T16:58:06.405Z,48
2017-06-24T16:59:14.495Z,48
2017-06-24T17:00:22.584Z,48
2017-06-24T17:01:30.675Z,48
2017-06-24T17:02:38.766Z,48
2017-06-24T17:03:46.853Z,48
2017-06-24T17:04:54.970Z,48
2017-06-24T17:06:03.035Z,48
2017-06-24T17:07:11.125Z,49
2017-06-24T17:08:19.215Z,49
2017-06-24T17:09:27.304Z,49
2017-06-24T17:10:35.404Z,49
2017-06-24T17:11:43.494Z,49
2017-06-24T17:12:51.583Z,49
2017-06-24T17:13:59.675Z,49
2017-06-24T17:15:07.764Z,49
2017-06-24T17:16:15.856Z,49
2017-06-24T17:17:23.948Z,48
2017-06-24T17:18:32.039Z,49
2017-06-24T17:19:40.128Z,49
2017-06-24T17:20:48.217Z,49
2017-06-24T17:21:56.370Z,49
2017-06-24T17:23:04.397Z,49
2017-06-24T17:24:12.486Z,49
2017-06-24T17:25:20.576Z,49
2017-06-24T17:26:28.669Z,49
2017-06-24T17:27:36.760Z,49
2017-06-24T17:28:44.848Z,50
2017-06-24T17:29:52.940Z,49
2017-06-24T17:31:01.030Z,49
2017-06-24T17:32:09.120Z,49
2017-06-24T17:33:17.210Z,49
2017-06-24T17:34:25.301Z,49
2017-06-24T17:35:33.392Z,49
2017-06-24T17:36:41.483Z,49
2017-06-24T17:37:49.573Z,49
2017-06-24T17:38:57.716Z,49
2017-06-24T17:40:05.755Z,49
2017-06-24T17:41:13.842Z,49
2017-06-24T17:42:21.933Z,49
2017-06-24T17:43:30.024Z,49
2017-06-24T17:44:38.115Z,49
2017-06-24T17:45:46.208Z,49
2017-06-24T17:46:54.294Z,50
2017-06-24T17:48:02.387Z,50
2017-06-24T17:49:10.476Z,50
2017-06-24T17:50:18.566Z,50
2017-06-24T17:51:26.657Z,50
2017-06-24T17:52:34.758Z,50
2017-06-24T17:53:42.846Z,50
2017-06-24T17:54:50.939Z,50
2017-06-24T17:55:59.068Z,50
2017-06-24T17:57:07.121Z,50
2017-06-24T17:58:15.208Z,50
2017-06-24T17:59:23.301Z,50
2017-06-24T18:00:31.389Z,50
2017-06-24T18:01:39.480Z,50
2017-06-24T18:02:47.569Z,50
2017-06-24T18:03:55.662Z,50
2017-06-24T18:05:03.751Z,50
2017-06-24T18:06:11.841Z,50
2017-06-24T18:07:19.932Z,50
2017-06-24T18:08:28.022Z,50
2017-06-24T18:09:36.111Z,50
2017-06-24T18:10:44.201Z,50
2017-06-24T18:11:52.349Z,50
2017-06-24T18:13:00.456Z,50
2017-06-24T18:14:08.473Z,50
2017-06-24T18:15:16.563Z,50
2017-06-24T18:16:24.655Z,50
2017-06-24T18:17:32.745Z,50
2017-06-24T18:18:40.839Z,50
2017-06-24T18:19:48.925Z,50
2017-06-24T18:20:57.014Z,50
2017-06-24T18:22:05.106Z,50
2017-06-24T18:23:13.196Z,50
2017-06-24T18:24:21.286Z,50
2017-06-24T18:25:29.376Z,50
2017-06-24T18:26:37.492Z,50
